createdAt,value
2022-10-17T00:00:25.817Z,5.47
2022-10-17T00:03:34.941Z,4.83
2022-10-17T00:06:41.472Z,4.17
2022-10-17T00:09:47.415Z,6.87
2022-10-17T00:12:53.988Z,5.53
2022-10-17T00:16:00.660Z,86.97
2022-10-17T00:19:08.599Z,28.90
2022-10-17T00:22:14.678Z,13.47
2022-10-17T00:25:21.008Z,9.17
2022-10-17T00:28:27.165Z,13.60
2022-10-17T00:31:33.165Z,6.57
2022-10-17T00:34:40.836Z,5.40
2022-10-17T00:37:46.808Z,4.57
2022-10-17T00:40:53.019Z,7.37
2022-10-17T00:44:02.199Z,10.10
2022-10-17T00:47:13.990Z,4.07
2022-10-17T00:50:21.879Z,4.73
2022-10-17T00:53:28.017Z,6.37
2022-10-17T00:56:34.982Z,11.87
2022-10-17T00:59:44.307Z,3.70
2022-10-17T01:02:50.299Z,6.13
2022-10-17T01:05:58.434Z,145.90
2022-10-17T01:09:05.291Z,52.23
2022-10-17T01:12:19.613Z,15.93
2022-10-17T01:15:39.145Z,9.83
2022-10-17T01:18:57.866Z,8.47
2022-10-17T01:22:15.478Z,7.37
2022-10-17T01:25:30.655Z,5.47
2022-10-17T01:29:05.825Z,6.37
2022-10-17T01:32:17.751Z,4.60
2022-10-17T01:35:29.404Z,8.00
2022-10-17T01:38:39.412Z,5.87
2022-10-17T01:41:51.216Z,4.33
2022-10-17T01:45:01.324Z,3.80
2022-10-17T01:48:15.837Z,4.13
2022-10-17T01:51:27.979Z,4.60
2022-10-17T01:54:40.690Z,4.10
2022-10-17T01:57:50.804Z,6.07
2022-10-17T02:00:59.738Z,3.70
2022-10-17T02:04:11.238Z,5.33
2022-10-17T02:07:17.765Z,5.63
2022-10-17T02:10:34.567Z,7.30
2022-10-17T02:13:57.903Z,4.03
2022-10-17T02:17:13.933Z,5.17
2022-10-17T02:20:26.215Z,10.10
2022-10-17T02:23:39.938Z,6.80
2022-10-17T02:26:53.529Z,4.27
2022-10-17T02:30:07.631Z,3.30
2022-10-17T02:33:17.984Z,10.07
2022-10-17T02:36:31.168Z,4.63
2022-10-17T02:39:39.449Z,3.93
2022-10-17T02:42:47.331Z,4.73
2022-10-17T02:45:54.189Z,15.47
2022-10-17T02:49:04.255Z,13.23
2022-10-17T02:52:15.986Z,9.40
2022-10-17T02:55:27.883Z,4.20
2022-10-17T02:58:36.399Z,4.43
2022-10-17T03:01:43.686Z,6.77
2022-10-17T03:04:50.266Z,5.37
2022-10-17T03:07:58.404Z,10.30
2022-10-17T03:11:04.678Z,5.87
2022-10-17T03:14:11.072Z,19.37
2022-10-17T03:17:17.455Z,16.60
2022-10-17T03:20:23.754Z,11.60
2022-10-17T03:23:31.464Z,19.90
2022-10-17T03:26:37.842Z,24.70
2022-10-17T03:29:43.902Z,31.53
2022-10-17T03:32:50.090Z,24.70
2022-10-17T03:35:56.200Z,12.80
2022-10-17T03:39:03.798Z,16.90
2022-10-17T03:42:09.760Z,20.33
2022-10-17T03:45:16.147Z,19.60
2022-10-17T03:48:22.004Z,20.80
2022-10-17T03:51:28.450Z,14.23
2022-10-17T03:54:35.948Z,9.00
2022-10-17T03:57:43.463Z,23.73
2022-10-17T04:00:51.400Z,8.93
2022-10-17T04:03:58.354Z,6.13
2022-10-17T04:07:04.830Z,5.73
2022-10-17T04:10:13.239Z,7.53
2022-10-17T04:13:19.329Z,6.80
2022-10-17T04:16:25.723Z,6.37
2022-10-17T04:19:32.216Z,6.50
2022-10-17T04:22:38.687Z,4.80
2022-10-17T04:25:46.474Z,7.77
2022-10-17T04:28:52.738Z,15.67
2022-10-17T04:31:58.827Z,16.60
2022-10-17T04:35:05.539Z,10.87
2022-10-17T04:38:11.597Z,7.97
2022-10-17T04:41:20.125Z,6.60
2022-10-17T04:44:26.119Z,21.67
2022-10-17T04:47:32.317Z,26.57
2022-10-17T04:50:38.578Z,23.50
2022-10-17T04:53:45.314Z,26.23
2022-10-17T04:56:52.895Z,24.70
2022-10-17T04:59:58.888Z,20.17
2022-10-17T05:03:05.021Z,14.67
2022-10-17T05:06:14.318Z,30.53
2022-10-17T05:09:20.289Z,32.03
2022-10-17T05:12:28.319Z,15.67
2022-10-17T05:15:34.887Z,19.03
2022-10-17T05:18:41.011Z,12.97
2022-10-17T05:21:47.345Z,7.80
2022-10-17T05:24:53.653Z,13.50
2022-10-17T05:28:01.201Z,13.47
2022-10-17T05:31:08.179Z,13.50
2022-10-17T05:34:14.675Z,14.07
2022-10-17T05:37:20.826Z,12.10
2022-10-17T05:40:27.037Z,17.07
2022-10-17T05:43:35.270Z,16.20
2022-10-17T05:46:41.486Z,15.60
2022-10-17T05:49:51.384Z,16.70
2022-10-17T05:52:59.031Z,22.33
2022-10-17T05:56:10.247Z,17.27
2022-10-17T05:59:18.069Z,9.73
2022-10-17T06:02:24.293Z,10.33
2022-10-17T06:05:30.427Z,30.33
2022-10-17T06:08:36.479Z,40.17
2022-10-17T06:11:42.789Z,40.70
2022-10-17T06:14:50.603Z,62.63
2022-10-17T06:17:56.696Z,57.10
2022-10-17T06:21:07.646Z,55.53
2022-10-17T06:24:14.453Z,53.90
2022-10-17T06:27:20.931Z,42.63
2022-10-17T06:30:28.487Z,33.03
2022-10-17T06:33:34.760Z,16.33
2022-10-17T06:36:41.048Z,21.40
2022-10-17T06:39:47.405Z,19.07
2022-10-17T06:42:53.751Z,12.60
2022-10-17T06:46:00.966Z,37.53
2022-10-17T06:49:07.611Z,19.13
2022-10-17T06:52:14.855Z,9.13
2022-10-17T06:55:23.066Z,12.07
2022-10-17T06:58:29.969Z,8.70
2022-10-17T07:01:38.926Z,16.90
2022-10-17T07:04:47.664Z,15.37
2022-10-17T07:07:53.571Z,12.47
2022-10-17T07:10:59.737Z,8.10
2022-10-17T07:14:05.820Z,6.63
2022-10-17T07:17:13.521Z,9.23
2022-10-17T07:20:19.838Z,6.60
2022-10-17T07:23:26.223Z,12.83
2022-10-17T07:26:32.498Z,12.03
2022-10-17T07:29:39.097Z,8.90
2022-10-17T07:32:46.788Z,13.17
2022-10-17T07:35:53.369Z,13.47
2022-10-17T07:38:59.467Z,8.67
2022-10-17T07:42:07.751Z,6.43
2022-10-17T07:45:14.361Z,9.10
2022-10-17T07:48:23.796Z,9.43
2022-10-17T07:51:30.162Z,14.97
2022-10-17T07:54:36.468Z,8.93
2022-10-17T07:57:42.655Z,14.33
2022-10-17T08:00:51.147Z,8.77
2022-10-17T08:03:59.079Z,8.57
2022-10-17T08:07:19.117Z,7.20
2022-10-17T08:10:29.427Z,7.23
2022-10-17T08:13:36.220Z,10.40
2022-10-17T08:16:42.330Z,13.07
2022-10-17T08:19:49.900Z,7.47
2022-10-17T08:22:56.275Z,5.93
2022-10-17T08:26:03.431Z,9.27
2022-10-17T08:29:14.394Z,5.90
2022-10-17T08:32:20.585Z,5.07
2022-10-17T08:35:28.682Z,28.30
2022-10-17T08:38:36.930Z,17.97
2022-10-17T08:41:59.356Z,10.13
2022-10-17T08:45:17.854Z,33.17
2022-10-17T08:48:27.123Z,29.90
2022-10-17T08:51:38.445Z,15.43
2022-10-17T08:54:47.322Z,6.17
2022-10-17T08:57:53.448Z,7.97
2022-10-17T09:01:11.974Z,4.47
2022-10-17T09:04:45.697Z,8.73
2022-10-17T09:08:00.632Z,10.10
2022-10-17T09:11:17.351Z,14.73
2022-10-17T09:14:51.335Z,16.00
2022-10-17T09:18:02.243Z,12.93
2022-10-17T09:21:19.474Z,15.47
2022-10-17T09:24:39.712Z,6.47
2022-10-17T09:27:49.921Z,5.43
2022-10-17T09:31:00.862Z,11.20
2022-10-17T09:34:07.942Z,6.40
2022-10-17T09:37:16.599Z,3.70
2022-10-17T09:40:32.860Z,3.07
2022-10-17T09:43:40.572Z,3.40
2022-10-17T09:47:05.586Z,3.10
2022-10-17T09:50:22.011Z,6.57
2022-10-17T09:53:35.919Z,4.50
2022-10-17T09:57:02.556Z,3.03
2022-10-17T10:00:21.096Z,2.90
2022-10-17T10:03:28.191Z,4.00
2022-10-17T10:06:34.552Z,1.97
2022-10-17T10:09:41.227Z,1.97
2022-10-17T10:13:04.670Z,2.30
2022-10-17T10:16:21.622Z,3.17
2022-10-17T10:19:31.579Z,2.03
2022-10-17T10:22:37.788Z,5.37
2022-10-17T10:25:56.750Z,1.80
2022-10-17T10:29:24.202Z,2.50
2022-10-17T10:35:59.099Z,2.43
2022-10-17T10:39:06.300Z,5.07
2022-10-17T10:42:23.219Z,4.20
2022-10-17T10:45:47.916Z,3.00
2022-10-17T10:49:00.320Z,2.23
2022-10-17T10:52:09.252Z,2.67
2022-10-17T10:55:25.389Z,2.53
2022-10-17T10:58:43.011Z,2.00
2022-10-17T11:01:57.988Z,5.50
2022-10-17T11:05:08.324Z,62.73
2022-10-17T11:08:24.748Z,22.83
2022-10-17T11:11:39.185Z,5.40
2022-10-17T11:14:50.397Z,2.60
2022-10-17T11:18:01.467Z,2.00
2022-10-17T11:21:16.226Z,3.37
2022-10-17T11:24:26.346Z,2.83
2022-10-17T11:27:33.006Z,2.80
2022-10-17T11:30:48.077Z,1.80
2022-10-17T11:33:59.132Z,2.90
2022-10-17T11:37:09.342Z,2.30
2022-10-17T11:40:23.451Z,3.77
2022-10-17T11:43:33.915Z,2.13
2022-10-17T11:46:43.845Z,1.67
2022-10-17T11:49:56.554Z,1.90
2022-10-17T11:53:06.396Z,1.63
2022-10-17T11:56:14.079Z,4.13
2022-10-17T11:59:47.216Z,3.53
2022-10-17T12:03:05.530Z,2.43
2022-10-17T12:06:19.516Z,2.27
2022-10-17T12:09:37.217Z,1.73
2022-10-17T12:12:43.527Z,1.50
2022-10-17T12:15:49.461Z,2.00
2022-10-17T12:19:28.655Z,2.00
2022-10-17T12:22:36.346Z,2.43
2022-10-17T12:25:51.785Z,1.80
2022-10-17T12:28:58.644Z,1.83
2022-10-17T12:32:12.792Z,2.30
2022-10-17T12:35:23.349Z,2.13
2022-10-17T12:38:31.236Z,1.90
2022-10-17T12:41:55.349Z,2.57
2022-10-17T12:45:01.664Z,4.40
2022-10-17T12:48:10.866Z,2.27
2022-10-17T12:55:00.125Z,2.00
2022-10-17T12:58:17.999Z,1.90
2022-10-17T13:01:30.064Z,4.33
2022-10-17T13:04:38.348Z,2.30
2022-10-17T13:07:47.120Z,2.97
2022-10-17T13:10:56.159Z,2.13
2022-10-17T13:14:05.364Z,2.07
2022-10-17T13:17:23.673Z,2.60
2022-10-17T13:20:31.982Z,2.50
2022-10-17T13:23:39.342Z,3.27
2022-10-17T13:26:47.820Z,1.87
2022-10-17T13:29:56.279Z,3.03
2022-10-17T13:33:03.299Z,3.13
2022-10-17T13:36:15.915Z,2.30
2022-10-17T13:39:38.507Z,2.77
2022-10-17T13:42:53.676Z,3.43
2022-10-17T13:46:25.287Z,2.30
2022-10-17T13:49:34.699Z,2.13
2022-10-17T13:52:41.172Z,4.70
2022-10-17T13:56:26.320Z,2.73
2022-10-17T13:59:32.211Z,2.03
2022-10-17T14:02:38.574Z,2.00
2022-10-17T14:06:10.824Z,1.73
2022-10-17T14:09:22.579Z,2.00
2022-10-17T14:12:28.970Z,2.53
2022-10-17T14:15:38.488Z,1.50
2022-10-17T14:18:49.410Z,1.97
2022-10-17T14:21:57.176Z,3.30
2022-10-17T14:25:04.437Z,2.83
2022-10-17T14:28:15.962Z,4.53
2022-10-17T14:31:31.808Z,3.40
2022-10-17T14:34:41.740Z,2.42
2022-10-17T14:37:50.754Z,2.30
2022-10-17T14:41:23.620Z,2.35
2022-10-17T14:44:31.671Z,2.45
2022-10-17T14:47:43.569Z,2.30
2022-10-17T14:51:08.842Z,6.27
2022-10-17T14:54:22.677Z,3.13
2022-10-17T14:57:42.016Z,2.30
2022-10-17T15:00:48.253Z,2.83
2022-10-17T15:03:55.776Z,3.47
2022-10-17T15:07:01.733Z,3.47
2022-10-17T15:10:08.488Z,27.17
2022-10-17T15:13:27.802Z,22.97
2022-10-17T15:16:37.209Z,15.30
2022-10-17T15:19:44.642Z,33.23
2022-10-17T15:22:50.727Z,51.43
2022-10-17T15:25:56.994Z,54.60
2022-10-17T15:29:03.689Z,45.37
2022-10-17T15:32:09.738Z,41.20
2022-10-17T15:35:18.602Z,53.93
2022-10-17T15:38:24.642Z,52.30
2022-10-17T15:41:32.771Z,99.40
2022-10-17T15:44:40.511Z,115.43
2022-10-17T15:47:52.237Z,178.27
2022-10-17T15:50:59.535Z,233.70
2022-10-17T15:54:06.371Z,160.27
2022-10-17T15:57:18.343Z,196.87
2022-10-17T16:00:25.988Z,170.40
2022-10-17T16:03:32.255Z,189.13
2022-10-17T16:06:39.672Z,185.50
2022-10-17T16:09:46.194Z,170.37
2022-10-17T16:12:52.311Z,141.67
2022-10-17T16:15:58.631Z,104.10
2022-10-17T16:19:05.184Z,60.23
2022-10-17T16:22:21.375Z,46.27
2022-10-17T16:25:29.776Z,43.97
2022-10-17T16:28:36.086Z,49.77
2022-10-17T16:31:44.564Z,60.50
2022-10-17T16:34:50.918Z,49.23
2022-10-17T16:37:58.504Z,65.83
2022-10-17T16:41:04.604Z,67.23
2022-10-17T16:44:14.680Z,49.43
2022-10-17T16:47:21.083Z,61.80
2022-10-17T16:50:27.312Z,106.93
2022-10-17T16:53:34.959Z,106.03
2022-10-17T16:56:42.219Z,105.30
2022-10-17T16:59:48.344Z,124.40
2022-10-17T17:02:54.420Z,155.67
2022-10-17T17:06:00.457Z,131.87
2022-10-17T17:09:09.358Z,110.10
2022-10-17T17:12:15.318Z,130.13
2022-10-17T17:15:21.298Z,108.97
2022-10-17T17:18:27.561Z,104.73
2022-10-17T17:21:33.918Z,178.87
2022-10-17T17:24:41.586Z,108.37
2022-10-17T17:27:47.785Z,115.03
2022-10-17T17:30:54.150Z,135.73
2022-10-17T17:34:00.738Z,140.17
2022-10-17T17:37:06.951Z,166.83
2022-10-17T17:40:14.723Z,205.83
2022-10-17T17:43:21.428Z,230.83
2022-10-17T17:46:27.712Z,202.07
2022-10-17T17:49:33.912Z,178.80
2022-10-17T17:52:42.277Z,141.17
2022-10-17T17:55:50.198Z,100.77
2022-10-17T17:58:58.095Z,107.67
2022-10-17T18:02:06.441Z,138.13
2022-10-17T18:05:12.693Z,106.73
2022-10-17T18:08:19.129Z,103.07
2022-10-17T18:11:27.275Z,106.53
2022-10-17T18:14:33.376Z,59.33
2022-10-17T18:17:40.092Z,40.20
2022-10-17T18:20:46.306Z,29.43
2022-10-17T18:23:52.977Z,15.73
2022-10-17T18:27:00.812Z,43.40
2022-10-17T18:30:08.589Z,59.93
2022-10-17T18:33:14.713Z,25.27
2022-10-17T18:36:21.637Z,26.43
2022-10-17T18:39:27.812Z,29.27
2022-10-17T18:42:35.532Z,42.83
2022-10-17T18:45:41.467Z,38.27
2022-10-17T18:48:49.359Z,40.07
2022-10-17T18:51:55.819Z,24.50
2022-10-17T18:55:02.108Z,27.27
2022-10-17T18:58:09.881Z,22.00
2022-10-17T19:01:18.171Z,26.43
2022-10-17T19:04:24.564Z,21.73
2022-10-17T19:07:31.160Z,66.60
2022-10-17T19:10:37.757Z,77.20
2022-10-17T19:16:57.471Z,168.70
2022-10-17T19:20:03.559Z,156.33
2022-10-17T19:23:10.041Z,128.80
2022-10-17T19:26:16.434Z,66.80
2022-10-17T19:29:31.288Z,72.90
2022-10-17T19:32:38.504Z,140.40
2022-10-17T19:35:44.737Z,91.77
2022-10-17T19:38:54.563Z,99.40
2022-10-17T19:42:05.979Z,42.77
2022-10-17T19:45:14.831Z,37.23
2022-10-17T19:48:21.143Z,52.03
2022-10-17T19:51:28.707Z,72.73
2022-10-17T19:54:35.129Z,87.43
2022-10-17T19:57:41.461Z,76.80
2022-10-17T20:00:50.112Z,61.43
2022-10-17T20:03:57.379Z,51.07
2022-10-17T20:07:03.749Z,36.97
2022-10-17T20:10:10.908Z,31.30
2022-10-17T20:13:16.968Z,20.43
2022-10-17T20:16:26.783Z,27.90
2022-10-17T20:19:33.303Z,37.90
2022-10-17T20:22:39.731Z,24.57
2022-10-17T20:25:46.191Z,29.47
2022-10-17T20:28:52.568Z,35.70
2022-10-17T20:31:59.993Z,56.77
2022-10-17T20:35:08.263Z,28.63
2022-10-17T20:38:14.861Z,44.73
2022-10-17T20:41:21.525Z,29.77
2022-10-17T20:44:27.780Z,31.60
2022-10-17T20:47:46.006Z,19.10
2022-10-17T20:50:55.047Z,22.33
2022-10-17T20:54:01.301Z,35.30
2022-10-17T20:57:07.851Z,44.17
2022-10-17T21:00:15.253Z,37.40
2022-10-17T21:03:22.831Z,44.17
2022-10-17T21:06:29.055Z,38.03
2022-10-17T21:09:35.675Z,27.53
2022-10-17T21:12:53.108Z,8.90
2022-10-17T21:16:06.340Z,10.87
2022-10-17T21:19:15.034Z,14.60
2022-10-17T21:22:21.255Z,23.37
2022-10-17T21:25:27.654Z,29.27
2022-10-17T21:28:34.674Z,33.43
2022-10-17T21:31:43.387Z,33.23
2022-10-17T21:34:50.991Z,31.70
2022-10-17T21:37:57.349Z,15.23
2022-10-17T21:41:04.073Z,16.07
2022-10-17T21:44:14.723Z,11.97
2022-10-17T21:47:23.281Z,9.50
2022-10-17T21:50:32.953Z,10.33
2022-10-17T21:53:39.437Z,9.63
2022-10-17T21:56:45.903Z,9.93
2022-10-17T21:59:52.509Z,13.50
2022-10-17T22:02:58.638Z,13.87
2022-10-17T22:06:37.519Z,14.20
2022-10-17T22:09:34.113Z,14.47
2022-10-17T22:12:40.420Z,11.40
2022-10-17T22:15:46.968Z,12.43
2022-10-17T22:18:58.726Z,10.77
2022-10-17T22:22:09.070Z,6.70
2022-10-17T22:25:15.055Z,5.30
2022-10-17T22:28:21.636Z,13.57
2022-10-17T22:31:28.115Z,10.53
2022-10-17T22:34:34.237Z,13.80
2022-10-17T22:37:41.880Z,10.03
2022-10-17T22:40:48.490Z,5.70
2022-10-17T22:43:54.587Z,11.20
2022-10-17T22:47:01.119Z,5.80
2022-10-17T22:50:07.916Z,6.30
2022-10-17T22:53:17.019Z,6.93
2022-10-17T22:56:24.039Z,5.87
2022-10-17T22:59:30.044Z,9.70
2022-10-17T23:02:36.527Z,10.17
2022-10-17T23:05:42.985Z,19.77
2022-10-17T23:08:50.856Z,13.57
2022-10-17T23:11:56.962Z,12.93
2022-10-17T23:15:03.715Z,18.20
2022-10-17T23:18:10.900Z,16.70
2022-10-17T23:21:17.525Z,12.67
2022-10-17T23:24:24.845Z,13.27
2022-10-17T23:30:42.024Z,19.97
2022-10-17T23:33:49.817Z,19.90
2022-10-17T23:36:56.312Z,19.50
2022-10-17T23:40:03.718Z,12.83
2022-10-17T23:43:10.204Z,6.07
2022-10-17T23:46:16.277Z,8.63
2022-10-17T23:49:22.209Z,6.07
2022-10-17T23:52:28.447Z,9.40
2022-10-17T23:55:36.495Z,8.67
2022-10-17T23:58:42.947Z,12.43
